Terminal Aerodrome Forecast
Issued by NWS Bismarck, ND

Home | Current Version | Previous Version | Text Only | Print | Product List | Glossary On
Versions: 1 2 3 4 5 6 7 8 9 10 11 12 13 14 15 16 17
000
FTUS43 KBIS 220500
TAFBIS
TAF
KBIS 220520Z 2206/2306 02005KT P6SM BKN100
     FM220800 02006KT 4SM -TSRA BKN030CB
     FM221200 02006KT 3SM -SHRA BR VCTS OVC015CB
     FM221500 04010KT 6SM BR VCTS OVC050CB=

USA.gov is the U.S. government's official web portal to all federal, state and local government web resources and services.